Time;durP1;ratioP1;P1;durP2;ratioP2;P2;SDS_P1;SDS_P2;PMS_P1;PMS_P2;Temp;Humidity;BMP_temperature;BMP_pressure;BME280_temperature;BME280_humidity;BME280_pressure;Samples;Min_cycle;Max_cycle;Signal;HPM_P1;HPM_P2
2023/09/15 00:04:26;;;;;;;3.97;2.00;;;;;;;16.25;65.81;99457.97;7273567;40;20264;31
2023/09/15 00:10:01;;;;;;;5.00;2.27;;;;;;;16.20;66.16;99453.13;7238849;40;20277;31
2023/09/15 00:20:26;;;;;;;3.70;1.80;;;;;;;16.03;67.11;99462.59;7252927;40;20257;31
2023/09/15 00:31:09;;;;;;;3.97;1.97;;;;;;;15.99;67.03;99449.59;7335322;39;20272;31
2023/09/15 00:41:47;;;;;;;3.60;2.10;;;;;;;15.90;66.77;99454.31;7364485;39;20315;31
2023/09/15 00:52:29;;;;;;;4.47;1.97;;;;;;;15.63;67.69;99449.63;7285622;39;20383;31
2023/09/15 00:58:08;;;;;;;3.13;1.70;;;;;;;15.51;68.29;99448.47;7241022;40;20242;31
2023/09/15 01:03:39;;;;;;;3.20;2.00;;;;;;;15.29;69.79;99450.28;7201915;40;20333;31
2023/09/15 01:09:15;;;;;;;2.60;2.00;;;;;;;15.14;69.79;99449.44;7238590;40;20240;31
2023/09/15 01:14:50;;;;;;;4.80;2.00;;;;;;;15.19;69.47;99441.56;7188801;40;20349;31
2023/09/15 01:20:26;;;;;;;3.20;2.10;;;;;;;15.12;70.23;99430.66;7237733;40;20257;31
2023/09/15 01:26:05;;;;;;;3.40;2.30;;;;;;;15.09;70.32;99425.59;7243052;40;20246;31
2023/09/15 01:31:41;;;;;;;4.80;2.10;;;;;;;15.12;69.82;99417.06;7209155;40;20257;31
2023/09/15 01:37:02;;;;;;;3.10;2.00;;;;;;;15.13;70.08;99415.19;7209896;40;20427;31
2023/09/15 01:42:23;;;;;;;4.67;2.00;;;;;;;15.10;70.50;99416.41;7233463;40;20290;31
2023/09/15 01:47:58;;;;;;;4.68;1.92;;;;;;;15.05;71.02;99413.41;7257228;39;20352;31
2023/09/15 01:53:35;;;;;;;3.05;2.05;;;;;;;15.02;70.67;99402.94;7276423;39;20332;31
2023/09/15 01:58:51;;;;;;;3.40;2.27;;;;;;;15.10;69.79;99410.97;7285767;39;20236;31
2023/09/15 02:04:27;;;;;;;3.20;2.30;;;;;;;15.03;70.28;99414.66;7319090;39;20240;31
2023/09/15 02:09:48;;;;;;;4.07;2.10;;;;;;;14.99;70.26;99419.63;7295595;39;20437;31
2023/09/15 02:15:07;;;;;;;3.75;1.80;;;;;;;15.08;69.90;99417.62;7328932;39;20368;31
2023/09/15 02:25:46;;;;;;;2.40;1.90;;;;;;;15.26;68.81;99415.34;7368449;39;21113;31
2023/09/15 02:36:11;;;;;;;3.58;1.92;;;;;;;15.04;68.49;99416.34;7329827;39;21096;31
2023/09/15 02:41:47;;;;;;;3.20;2.20;;;;;;;14.98;69.08;99411.66;7354732;39;20789;31
2023/09/15 02:47:23;;;;;;;3.60;2.10;;;;;;;14.90;69.47;99407.19;7331931;39;20875;31
2023/09/15 02:52:40;;;;;;;6.00;2.27;;;;;;;15.10;68.33;99397.41;7092205;40;20312;31
2023/09/15 02:58:20;;;;;;;4.17;2.23;;;;;;;15.13;68.00;99402.47;7310803;39;20255;31
2023/09/15 03:03:46;;;;;;;4.20;1.90;;;;;;;15.17;67.92;99400.22;7280944;39;20262;31
2023/09/15 03:09:04;;;;;;;3.70;2.30;;;;;;;15.05;67.64;99402.56;7336608;39;20248;31
2023/09/15 03:14:40;;;;;;;4.50;2.10;;;;;;;14.82;69.16;99393.72;7310607;39;20452;31
2023/09/15 03:20:18;;;;;;;2.60;2.00;;;;;;;14.59;69.71;99401.13;7284187;40;20331;31
2023/09/15 03:25:36;;;;;;;3.07;2.00;;;;;;;14.80;68.88;99403.91;7306774;39;20345;31
2023/09/15 03:31:09;;;;;;;6.30;2.20;;;;;;;14.88;67.78;99401.94;7326024;39;20243;31
2023/09/15 03:36:44;;;;;;;4.73;1.93;;;;;;;14.60;68.99;99400.09;7270740;39;20248;31
2023/09/15 03:42:18;;;;;;;5.30;2.30;;;;;;;14.55;69.29;99392.53;7267377;40;20240;31
2023/09/15 03:47:57;;;;;;;3.90;2.40;;;;;;;14.37;70.90;99392.03;7268611;40;20842;31
2023/09/15 03:53:30;;;;;;;6.57;2.27;;;;;;;14.26;70.74;99395.19;7317407;39;20240;31
2023/09/15 03:58:51;;;;;;;3.65;2.20;;;;;;;14.37;70.07;99392.03;7258824;40;20312;31
2023/09/15 04:04:27;;;;;;;3.70;2.20;;;;;;;14.54;70.03;99387.28;7236855;40;20449;31
2023/09/15 04:09:48;;;;;;;3.05;1.80;;;;;;;14.69;69.49;99393.53;7234880;40;20257;31
2023/09/15 04:15:25;;;;;;;3.67;2.00;;;;;;;14.62;68.75;99389.88;7263281;40;20362;31
2023/09/15 04:26:05;;;;;;;3.63;2.53;;;;;;;14.03;71.28;99397.09;7324689;39;21846;31
2023/09/15 04:31:25;;;;;;;5.37;2.40;;;;;;;13.96;71.75;99399.69;7289787;40;20377;31
2023/09/15 04:36:46;;;;;;;3.20;2.20;;;;;;;13.88;72.63;99402.47;7262798;40;20257;31
2023/09/15 04:42:22;;;;;;;4.47;2.23;;;;;;;13.82;73.22;99393.19;7281486;40;20247;31
2023/09/15 04:48:08;;;;;;;4.10;2.35;;;;;;;13.85;72.86;99389.31;7283337;39;21089;31
2023/09/15 04:58:46;;;;;;;6.70;2.70;;;;;;;13.79;73.47;99409.00;7289354;39;21132;31
2023/09/15 05:04:21;;;;;;;3.20;2.20;;;;;;;13.89;73.07;99409.59;7258609;40;20320;31
2023/09/15 05:09:56;;;;;;;3.80;2.33;;;;;;;13.83;73.28;99394.06;7273372;40;20237;31
2023/09/15 05:15:34;;;;;;;2.80;2.40;;;;;;;13.89;73.39;99385.19;7281594;40;20312;31
2023/09/15 05:21:08;;;;;;;5.87;2.70;;;;;;;13.84;72.57;99403.88;7246337;40;20283;31
2023/09/15 05:26:43;;;;;;;5.03;2.33;;;;;;;13.88;72.00;99402.47;7259211;40;20358;31
2023/09/15 05:32:21;;;;;;;4.30;2.20;;;;;;;13.98;72.41;99408.50;7198012;40;20250;31
2023/09/15 05:37:55;;;;;;;5.43;2.30;;;;;;;14.10;71.90;99417.88;7249287;40;20273;31
2023/09/15 05:43:30;;;;;;;8.63;2.40;;;;;;;14.09;71.34;99415.31;7237079;40;20797;31
2023/09/15 05:54:11;;;;;;;8.17;2.50;;;;;;;14.29;71.95;99413.78;7279125;40;21256;31
2023/09/15 06:04:36;;;;;;;7.10;2.50;;;;;;;14.55;71.65;99418.78;7313841;39;21594;31
2023/09/15 06:10:15;;;;;;;7.27;2.47;;;;;;;14.58;71.87;99410.28;7279879;40;20316;31
2023/09/15 06:15:51;;;;;;;4.00;2.50;;;;;;;14.67;71.89;99420.00;7232564;40;20252;31
2023/09/15 06:21:25;;;;;;;5.57;2.10;;;;;;;14.80;71.55;99415.59;7236877;40;20270;31
2023/09/15 06:32:04;;;;;;;6.47;2.73;;;;;;;14.96;73.20;99401.00;7243770;40;20265;31
2023/09/15 06:42:28;;;;;;;5.20;3.00;;;;;;;15.26;72.71;99405.34;7331645;39;21084;31
2023/09/15 06:48:04;;;;;;;6.50;2.60;;;;;;;15.47;73.69;99412.66;7377805;39;20243;31
2023/09/15 06:58:53;;;;;;;;;;;;;;;;;;;;;
2023/09/15 07:04:21;;;;;;;5.30;3.00;;;;;;;16.07;73.13;99403.22;7296436;39;20508;31
2023/09/15 07:09:41;;;;;;;5.70;3.00;;;;;;;16.22;71.22;99412.97;7278295;40;20297;31
2023/09/15 07:14:54;;;;;;;6.63;2.87;;;;;;;16.48;71.08;99416.94;5248223;49;20270;-72
2023/09/15 07:20:28;;;;;;;4.37;2.87;;;;;;;16.63;71.91;99409.50;7318280;39;20322;31
2023/09/15 07:25:48;;;;;;;7.30;3.77;;;;;;;16.77;71.66;99410.41;7291341;40;20259;31
2023/09/15 07:31:23;;;;;;;7.10;3.60;;;;;;;16.84;71.24;99395.81;7302099;39;20245;31
2023/09/15 07:37:00;;;;;;;8.53;4.00;;;;;;;17.00;70.62;99403.66;7261919;39;20260;31
2023/09/15 07:42:21;;;;;;;4.33;3.53;;;;;;;17.21;70.72;99401.81;7246981;40;20394;31
2023/09/15 07:47:42;;;;;;;6.07;3.50;;;;;;;17.32;70.38;99398.53;7278764;39;20391;31
2023/09/15 07:53:19;;;;;;;6.87;3.90;;;;;;;17.45;69.87;99384.94;7253780;39;20253;31
2023/09/15 07:58:40;;;;;;;5.20;3.80;;;;;;;17.66;69.62;99368.44;7251845;39;20262;31
2023/09/15 08:04:01;;;;;;;9.15;4.20;;;;;;;17.75;69.73;99377.25;7258883;39;20304;31
2023/09/15 08:09:36;;;;;;;7.02;3.84;;;;;;;17.89;69.87;99368.87;7243080;40;20335;31
2023/09/15 08:14:58;;;;;;;4.90;3.80;;;;;;;18.05;68.83;99383.97;7269199;39;20708;31
2023/09/15 08:20:33;;;;;;;8.45;4.00;;;;;;;18.17;69.11;99378.72;7311384;39;20722;31
2023/09/15 08:26:09;;;;;;;5.90;3.70;;;;;;;18.32;68.61;99373.88;7285467;40;20677;31
2023/09/15 08:31:30;;;;;;;5.47;3.97;;;;;;;18.53;67.81;99370.94;7240983;40;20265;31
2023/09/15 08:36:50;;;;;;;6.40;3.60;;;;;;;18.73;68.29;99369.00;7225817;40;20377;31
2023/09/15 08:42:27;;;;;;;5.30;3.50;;;;;;;18.94;67.57;99370.63;7251879;40;20275;31
2023/09/15 08:53:06;;;;;;;8.80;3.85;;;;;;;19.12;67.22;99365.28;7296062;40;22045;31
2023/09/15 09:03:46;;;;;;;6.62;3.53;;;;;;;19.26;66.74;99366.06;7279829;39;21033;31
2023/09/15 09:09:21;;;;;;;8.70;3.90;;;;;;;19.45;65.85;99354.19;7260204;40;20249;31
2023/09/15 09:14:57;;;;;;;6.70;3.70;;;;;;;19.60;67.03;99348.41;7258234;40;20256;31
2023/09/15 09:20:40;;;;;;;8.20;3.80;;;;;;;19.83;65.89;99356.03;7257269;40;20242;31
2023/09/15 09:26:13;;;;;;;7.13;4.23;;;;;;;19.91;65.22;99353.87;7180848;40;21981;31
2023/09/15 09:31:33;;;;;;;8.57;3.60;;;;;;;20.19;65.66;99350.66;7199661;40;20345;31
2023/09/15 09:37:08;;;;;;;8.35;3.62;;;;;;;20.40;64.74;99335.75;7228939;40;20237;31
2023/09/15 09:47:48;;;;;;;4.77;3.87;;;;;;;20.68;64.94;99334.16;7269124;40;21202;31
2023/09/15 09:53:25;;;;;;;6.63;3.90;;;;;;;20.88;64.83;99333.09;7296786;39;20260;31
2023/09/15 09:58:45;;;;;;;4.83;3.90;;;;;;;21.17;63.53;99329.59;7290547;39;20398;31
2023/09/15 10:04:21;;;;;;;6.67;4.30;;;;;;;21.33;63.23;99323.44;7296219;39;20272;31
2023/09/15 10:09:55;;;;;;;6.28;3.78;;;;;;;21.57;63.08;99307.91;7044650;40;20414;31
2023/09/15 10:15:32;;;;;;;6.45;3.50;;;;;;;21.81;61.60;99301.38;7285045;39;20366;31
2023/09/15 10:26:10;;;;;;;6.78;3.75;;;;;;;22.16;60.71;99292.37;7314800;39;21166;31
2023/09/15 10:36:46;;;;;;;6.07;4.28;;;;;;;22.58;59.37;99293.88;7309816;39;20346;31
2023/09/15 10:42:24;;;;;;;7.57;3.67;;;;;;;22.75;59.29;99286.56;7320738;39;20248;31
2023/09/15 10:48:10;;;;;;;7.60;3.63;;;;;;;22.91;59.67;99276.72;7312738;39;20312;31
2023/09/15 10:53:45;;;;;;;6.00;3.70;;;;;;;23.11;57.91;99279.88;7321613;39;20340;31
2023/09/15 10:59:21;;;;;;;4.80;3.47;;;;;;;23.29;57.21;99260.44;7250100;39;20332;31
2023/09/15 11:04:56;;;;;;;5.75;3.50;;;;;;;23.54;57.75;99259.22;7206477;40;20354;31
2023/09/15 11:15:33;;;;;;;6.80;3.30;;;;;;;23.88;56.88;99249.88;7274154;39;21236;31
2023/09/15 11:21:17;;;;;;;7.45;3.50;;;;;;;24.05;54.88;99253.44;7326074;39;20393;31
2023/09/15 11:31:56;;;;;;;3.90;3.10;;;;;;;24.48;55.05;99236.19;7279792;40;20276;31
2023/09/15 11:42:36;;;;;;;5.53;2.83;;;;;;;24.61;53.05;99234.97;7243753;40;20289;31
2023/09/15 11:53:13;;;;;;;4.90;2.80;;;;;;;25.22;52.88;99202.59;7301098;39;21270;31
2023/09/15 11:58:49;;;;;;;6.55;3.00;;;;;;;25.50;50.33;99203.09;7277674;39;20241;31
2023/09/15 12:04:24;;;;;;;5.50;2.75;;;;;;;25.44;51.13;99201.41;7273984;39;20247;31
2023/09/15 12:10:01;;;;;;;5.07;3.35;;;;;;;25.48;49.77;99187.91;7256765;40;20352;31
2023/09/15 12:15:36;;;;;;;5.47;2.92;;;;;;;25.40;51.24;99183.72;7218750;40;20403;31
2023/09/15 12:21:12;;;;;;;6.88;3.22;;;;;;;25.49;49.78;99182.09;7238273;40;20324;31
2023/09/15 12:26:46;;;;;;;9.15;3.37;;;;;;;25.64;50.17;99170.37;7229419;40;20296;31
2023/09/15 12:32:21;;;;;;;4.20;3.10;;;;;;;25.77;50.21;99169.09;7243133;40;20245;31
2023/09/15 12:37:57;;;;;;;4.98;3.08;;;;;;;25.94;49.98;99167.00;7228471;40;20262;31
2023/09/15 12:43:34;;;;;;;5.80;2.80;;;;;;;26.09;49.68;99160.72;7279758;39;20322;31
2023/09/15 12:49:13;;;;;;;3.40;2.90;;;;;;;25.97;49.86;99144.38;7247524;40;20241;31
2023/09/15 12:54:49;;;;;;;4.68;3.20;;;;;;;26.16;49.99;99144.72;7200093;40;20231;31
2023/09/15 13:00:25;;;;;;;4.60;3.72;;;;;;;26.22;48.16;99138.16;7247197;40;20265;31
2023/09/15 13:06:00;;;;;;;5.74;3.26;;;;;;;26.27;48.87;99135.44;7278594;40;20277;31
2023/09/15 13:11:21;;;;;;;4.84;3.20;;;;;;;26.20;49.30;99132.03;7265081;40;20324;31
2023/09/15 13:16:57;;;;;;;4.87;3.37;;;;;;;26.21;49.27;99123.50;7291049;39;20263;31
2023/09/15 13:22:18;;;;;;;5.55;3.15;;;;;;;26.45;49.00;99118.38;7337898;39;20282;31
2023/09/15 13:27:49;;;;;;;5.20;3.50;;;;;;;26.40;49.05;99112.81;7337055;39;20529;31
2023/09/15 13:33:27;;;;;;;4.05;3.30;;;;;;;26.42;48.86;99102.28;7307771;39;20422;31
2023/09/15 13:38:47;;;;;;;4.28;3.67;;;;;;;26.46;49.07;99095.94;7278365;39;20245;31
2023/09/15 13:44:23;;;;;;;6.37;3.60;;;;;;;26.68;48.68;99092.16;7301729;39;20255;31
2023/09/15 13:50:00;;;;;;;3.75;3.30;;;;;;;26.70;47.98;99081.63;7214286;40;20242;31
2023/09/15 13:55:36;;;;;;;5.92;3.58;;;;;;;26.83;48.40;99089.41;7177520;40;20258;31
2023/09/15 14:01:11;;;;;;;4.20;3.30;;;;;;;26.74;48.67;99086.34;7279827;39;20236;31
2023/09/15 14:06:48;;;;;;;4.10;3.20;;;;;;;26.78;48.17;99079.16;7299006;39;20418;31
2023/09/15 14:12:24;;;;;;;4.40;2.90;;;;;;;26.71;48.11;99075.84;7287492;40;20547;31
2023/09/15 14:17:45;;;;;;;3.90;3.25;;;;;;;26.71;48.68;99067.53;7237279;40;20694;31
2023/09/15 14:23:21;;;;;;;3.92;2.87;;;;;;;26.88;47.84;99061.78;7282783;39;20265;31
2023/09/15 14:28:42;;;;;;;4.78;2.92;;;;;;;26.82;47.72;99058.13;7300894;39;20292;31
2023/09/15 14:34:13;;;;;;;6.62;2.90;;;;;;;26.86;48.02;99050.97;7303920;39;20888;31
2023/09/15 14:44:53;;;;;;;4.65;2.90;;;;;;;26.58;48.45;99028.53;7384108;39;20284;31
2023/09/15 14:55:32;;;;;;;3.60;2.80;;;;;;;26.61;47.88;99034.34;7300653;39;20276;31
2023/09/15 15:06:16;;;;;;;6.10;2.90;;;;;;;26.67;47.97;99022.19;7302433;39;20271;31
2023/09/15 15:11:49;;;;;;;3.60;2.90;;;;;;;26.56;47.83;99025.19;7299017;39;20797;31
2023/09/15 15:17:09;;;;;;;5.05;3.20;;;;;;;26.45;48.07;99016.06;7262389;40;20310;31
2023/09/15 15:22:44;;;;;;;3.35;2.80;;;;;;;26.29;47.62;99006.91;7245316;40;20264;31
2023/09/15 15:28:06;;;;;;;3.03;2.73;;;;;;;26.25;48.71;99003.03;7266918;40;20531;31
2023/09/15 15:33:40;;;;;;;5.10;2.90;;;;;;;26.23;48.76;98996.13;7315309;39;20394;31
2023/09/15 15:39:17;;;;;;;3.62;2.83;;;;;;;26.11;49.19;98995.53;7308841;39;20419;31
2023/09/15 15:44:37;;;;;;;4.75;3.10;;;;;;;25.98;49.46;98991.31;7259272;39;20348;31
2023/09/15 15:49:58;;;;;;;3.90;2.90;;;;;;;25.87;49.78;98984.94;7277772;39;20252;31
2023/09/15 15:55:31;;;;;;;3.60;3.08;;;;;;;25.75;50.89;98975.25;7255147;39;20451;31
2023/09/15 16:01:05;;;;;;;4.00;2.90;;;;;;;25.69;50.33;98977.13;7259083;40;20256;31
2023/09/15 16:11:50;;;;;;;3.90;3.30;;;;;;;25.66;51.17;98969.41;7333826;39;21158;31
2023/09/15 16:17:26;;;;;;;3.15;2.85;;;;;;;25.60;51.33;98964.94;7309679;39;20311;31
2023/09/15 16:23:02;;;;;;;3.40;3.10;;;;;;;25.55;51.29;98965.75;7290853;40;20249;31
2023/09/15 16:28:38;;;;;;;3.42;3.00;;;;;;;25.41;51.47;98963.72;7299756;40;20259;31
2023/09/15 16:34:12;;;;;;;4.72;3.30;;;;;;;25.33;52.60;98962.31;7245472;40;20358;31
2023/09/15 16:39:48;;;;;;;4.05;3.12;;;;;;;25.25;52.41;98956.47;7281488;40;20241;31
2023/09/15 16:45:25;;;;;;;4.43;3.37;;;;;;;25.20;52.39;98950.91;7202321;40;20356;31
2023/09/15 16:50:45;;;;;;;5.35;3.20;;;;;;;25.18;52.53;98956.72;7043145;39;20291;31
2023/09/15 16:56:03;;;;;;;8.20;3.05;;;;;;;25.11;52.74;98956.09;7282598;39;20348;31
2023/09/15 17:01:40;;;;;;;3.50;3.20;;;;;;;25.01;54.31;98958.81;7294642;39;20252;31
2023/09/15 17:06:58;;;;;;;4.95;3.10;;;;;;;24.92;53.01;98963.19;7350633;39;20264;31
2023/09/15 17:12:27;;;;;;;4.43;3.15;;;;;;;24.84;54.33;98967.19;7353815;39;20256;31
2023/09/15 17:18:00;;;;;;;6.82;3.72;;;;;;;24.73;55.02;98965.47;7303082;39;20241;31
2023/09/15 17:23:20;;;;;;;10.40;3.55;;;;;;;24.63;56.84;98971.72;7245573;40;20699;31
2023/09/15 17:28:55;;;;;;;6.80;4.30;;;;;;;24.45;57.55;98972.13;7288116;39;20986;31
2023/09/15 17:34:31;;;;;;;4.72;3.75;;;;;;;24.29;57.96;98975.00;7288593;39;20818;31
2023/09/15 17:39:51;;;;;;;4.28;3.80;;;;;;;24.13;58.65;98968.50;7298691;39;20864;31
2023/09/15 17:45:26;;;;;;;7.00;3.60;;;;;;;23.98;59.48;98966.41;7279959;40;21092;31
2023/09/15 17:51:02;;;;;;;6.50;3.65;;;;;;;23.80;60.51;98964.00;7287335;39;20749;31
2023/09/15 17:56:34;;;;;;;8.30;3.80;;;;;;;23.64;61.38;98965.75;7266135;40;20439;31
2023/09/15 18:01:55;;;;;;;7.83;4.00;;;;;;;23.50;60.33;98977.38;7312610;39;20421;31
2023/09/15 18:07:31;;;;;;;7.35;4.03;;;;;;;23.30;61.29;98981.50;7299037;39;20252;31
2023/09/15 18:13:06;;;;;;;5.90;3.60;;;;;;;23.25;61.63;98981.44;7287732;40;20248;31
2023/09/15 18:18:26;;;;;;;5.82;3.58;;;;;;;23.15;60.78;98983.22;7257891;40;20241;31
2023/09/15 18:24:00;;;;;;;6.65;4.97;;;;;;;23.07;61.16;98970.72;7276577;39;21177;31
2023/09/15 18:34:25;;;;;;;4.55;3.62;;;;;;;22.92;59.84;98970.50;7290069;39;21269;31
2023/09/15 18:45:06;;;;;;;6.45;3.87;;;;;;;22.71;61.20;98980.34;7332758;39;21110;31
2023/09/15 18:55:43;;;;;;;7.40;4.33;;;;;;;22.49;61.00;98973.88;7340895;39;20287;31
2023/09/15 19:01:20;;;;;;;5.90;3.50;;;;;;;22.38;60.71;98978.38;7244451;40;20246;31
2023/09/15 19:06:53;;;;;;;4.72;3.20;;;;;;;22.38;60.10;98985.78;7238342;40;20449;31
2023/09/15 19:12:15;;;;;;;4.40;3.10;;;;;;;22.30;61.14;98981.53;7219949;40;20308;31
2023/09/15 19:17:50;;;;;;;4.47;3.47;;;;;;;22.12;60.00;98961.69;7241802;40;20264;31
2023/09/15 19:23:11;;;;;;;4.40;3.17;;;;;;;22.21;60.06;98972.03;7306981;39;20259;31
2023/09/15 19:28:49;;;;;;;5.20;3.30;;;;;;;22.26;59.68;98968.53;7274307;40;20257;31
2023/09/15 19:34:22;;;;;;;4.20;3.30;;;;;;;22.28;59.51;98975.47;7287618;40;20423;31
2023/09/15 19:39:43;;;;;;;3.55;3.20;;;;;;;22.27;59.66;98975.69;7246193;40;20256;31
2023/09/15 19:45:17;;;;;;;6.65;3.60;;;;;;;22.15;60.03;98984.00;7256573;40;20248;31
2023/09/15 19:50:53;;;;;;;3.55;3.25;;;;;;;21.99;60.12;98987.53;7246468;40;20300;31
2023/09/15 19:56:14;;;;;;;4.55;3.70;;;;;;;21.92;60.57;98981.34;7249073;40;20246;31
2023/09/15 20:01:49;;;;;;;3.97;3.20;;;;;;;21.92;60.54;98975.84;7227640;40;20241;31
2023/09/15 20:07:25;;;;;;;5.00;3.53;;;;;;;22.02;60.29;98984.31;7220980;40;20321;31
2023/09/15 20:13:00;;;;;;;6.00;3.50;;;;;;;22.08;60.23;98979.72;7235368;40;20350;31
2023/09/15 20:23:41;;;;;;;7.20;3.83;;;;;;;22.09;60.18;98984.97;7227133;40;20276;31
2023/09/15 20:29:16;;;;;;;7.30;4.00;;;;;;;22.04;60.66;98971.16;7243612;40;20266;31
2023/09/15 20:34:37;;;;;;;4.10;3.47;;;;;;;21.97;60.46;98971.31;7240921;40;20807;31
2023/09/15 20:40:13;;;;;;;5.85;3.70;;;;;;;21.93;60.95;98974.81;7277944;40;20763;31
2023/09/15 20:45:34;;;;;;;5.10;4.00;;;;;;;21.87;61.66;98970.25;7235093;40;20436;31
2023/09/15 20:50:56;;;;;;;7.20;4.05;;;;;;;21.92;61.46;98964.87;7208128;40;20273;31
2023/09/15 20:56:31;;;;;;;6.13;4.50;;;;;;;21.94;61.13;98962.72;7228919;40;20253;31
2023/09/15 21:01:49;;;;;;;4.82;3.92;;;;;;;21.99;61.17;98963.66;7231608;40;20245;31
2023/09/15 21:07:09;;;;;;;5.18;4.43;;;;;;;21.98;60.99;98947.47;7277879;40;20261;31
2023/09/15 21:12:45;;;;;;;4.70;4.07;;;;;;;21.77;62.64;98937.12;7288929;39;20244;31
2023/09/15 21:18:06;;;;;;;8.30;4.67;;;;;;;21.34;63.58;98923.91;7255206;40;20240;31
2023/09/15 21:23:41;;;;;;;6.72;4.30;;;;;;;21.37;63.92;98943.44;7289163;39;20233;31
2023/09/15 21:29:17;;;;;;;5.60;4.60;;;;;;;21.36;64.41;98938.22;7238904;40;20258;31
2023/09/15 21:34:38;;;;;;;6.12;4.22;;;;;;;21.24;64.50;98937.44;7288908;39;20276;31
2023/09/15 21:39:58;;;;;;;6.77;4.70;;;;;;;21.03;64.81;98947.91;7233425;40;20331;31
2023/09/15 21:45:35;;;;;;;6.20;5.30;;;;;;;20.83;66.13;98941.13;7263521;39;20240;31
2023/09/15 21:50:57;;;;;;;7.15;4.70;;;;;;;20.96;64.67;98943.63;7259289;40;20323;31
2023/09/15 21:56:31;;;;;;;6.10;4.85;;;;;;;21.06;65.55;98941.13;7299627;39;20276;31
2023/09/15 22:02:07;;;;;;;4.92;4.42;;;;;;;21.14;64.60;98932.56;7275360;39;20244;31
2023/09/15 22:07:28;;;;;;;5.55;4.65;;;;;;;21.22;64.23;98940.41;7258336;40;20249;31
2023/09/15 22:13:03;;;;;;;4.75;4.28;;;;;;;21.23;64.07;98938.50;7261704;39;20253;31
2023/09/15 22:18:37;;;;;;;5.80;4.80;;;;;;;21.11;65.31;98952.19;7231143;40;20273;31
2023/09/15 22:24:13;;;;;;;5.68;5.10;;;;;;;20.76;66.05;98952.19;7273982;39;20378;31
2023/09/15 22:29:48;;;;;;;6.20;5.03;;;;;;;20.57;66.07;98950.66;7310814;39;20245;31
2023/09/15 22:35:22;;;;;;;6.62;5.22;;;;;;;20.38;66.89;98954.56;7295473;39;20252;31
2023/09/15 22:40:58;;;;;;;7.53;5.45;;;;;;;20.32;66.90;98956.31;7262685;39;20237;31
2023/09/15 22:46:37;;;;;;;7.80;4.60;;;;;;;20.37;67.79;98940.03;7260917;40;20340;31
2023/09/15 22:52:10;;;;;;;5.60;4.70;;;;;;;20.44;66.25;98929.81;7210052;40;20249;31
2023/09/15 22:57:47;;;;;;;6.80;5.53;;;;;;;20.20;67.62;98931.66;7192410;40;20739;31
2023/09/15 23:03:06;;;;;;;5.87;5.28;;;;;;;20.11;68.34;98944.00;7208434;40;20393;31
2023/09/15 23:13:47;;;;;;;6.00;5.40;;;;;;;19.96;67.93;98945.50;7298707;39;21016;31
2023/09/15 23:19:22;;;;;;;5.87;5.28;;;;;;;19.92;68.95;98936.91;7290201;39;20392;31
2023/09/15 23:24:41;;;;;;;7.82;5.25;;;;;;;19.90;69.18;98936.31;7254973;40;20241;31
2023/09/15 23:30:14;;;;;;;5.80;5.12;;;;;;;19.83;68.32;98938.34;7055313;40;20314;31
2023/09/15 23:35:33;;;;;;;5.43;4.93;;;;;;;19.88;68.25;98940.38;7222761;40;20788;31
2023/09/15 23:40:53;;;;;;;8.83;5.23;;;;;;;19.88;68.44;98937.62;7238072;40;20441;31
2023/09/15 23:46:29;;;;;;;5.97;5.37;;;;;;;19.66;68.64;98935.38;7306142;39;20240;31
2023/09/15 23:52:01;;;;;;;4.90;4.28;;;;;;;19.66;68.24;98935.38;7317092;39;20236;31
2023/09/15 23:57:36;;;;;;;6.40;5.10;;;;;;;19.50;67.94;98941.50;7295773;40;20252;31
